FBSK/GBE METAR and TAF weather

Enter ICAO airport designator
Station Type Date Time Source
FBSK METAR 2019/10/21 21:00 UTC NOAA

FBSK 212100Z 21016KT CAVOK 30/M09 Q1013 NOSIG


Station Type Date Time Source
FBSK Decoded METAR 2019/10/21 21:00 UTC NOAA

Seretse Khama International Airport, Botswana (FBSK) 24-13S 025-55E 1005M
Oct 21, 2019 - 05:00 PM EDT / 2019.10.21 2100 UTC
Wind: from the SSW (210 degrees) at 18 MPH (16 KT):0
Visibility: greater than 7 mile(s):0
Temperature: 86 F (30 C)
Dew Point: 15 F (-9 C)
Relative Humidity: 7%
Pressure (altimeter): 29.91 in. Hg (1013 hPa)
ob: FBSK 212100Z 21016KT CAVOK 30/M09 Q1013 NOSIG
cycle: 21

Station Type Date Time Source
FBSK TAF 2019/10/21 18:06 UTC NOAA

TAF TAF FBSK 211500Z 2118/2224 22010KT CAVOK

Example: see airport list